Terminal Aerodrome Forecast
Issued by NWS

Home | Current Version | Previous Version | Text Only | Print | Product List | Glossary On
Versions: 1 2 3 4 5 6 7 8 9 10 11 12 13 14 15 16
000
FTUS41 KPBZ 222300
TAFAGC
TAF
KAGC 222340Z 2300/2324 11006KT P6SM BKN100
     FM231200 15008KT P6SM BKN025
     FM231600 17010KT P6SM OVC040=

USA.gov is the U.S. government's official web portal to all federal, state and local government web resources and services.